KEFD/EFD METAR and TAF weather

Enter ICAO airport designator
Station Type Date Time Source
KEFD METAR 2018/10/21 04:50 UTC NOAA

KEFD 210450Z 01010KT 10SM SCT010 OVC050 19/17 A3021


Station Type Date Time Source
KEFD Decoded METAR 2018/10/21 04:50 UTC NOAA

Houston / Ellington, TX, United States (KEFD) 29-36N 095-10W
Oct 21, 2018 - 12:50 AM EDT / 2018.10.21 0450 UTC
Wind: from the N (010 degrees) at 12 MPH (10 KT):0
Visibility: 10 mile(s):0
Sky conditions: overcast
Temperature: 66 F (19 C)
Dew Point: 62 F (17 C)
Relative Humidity: 88%
Pressure (altimeter): 30.21 in. Hg (1023 hPa)
ob: KEFD 210450Z 01010KT 10SM SCT010 OVC050 19/17 A3021
cycle: 5

Station Type Date Time Source
KEFD TAF 2018/10/21 04:09 UTC NOAA

TAF KEFD 210400Z 2104/2210 02012KT 9999 FEW015 FEW080 SCT200 520104 QNH3017INS
BECMG 2112/2113 06015G25KT 9999 FEW250 QNH3027INS
BECMG 2121/2122 04010KT 9999 SCT150 BKN250 QNH3018INS TX24/2121Z TN17/2202Z


Example: see airport list